sensor_id;sensor_type;location;lat;lon;timestamp;P1;durP1;ratioP1;P2;durP2;ratioP2
42000;SDS011;27689;48.390;10.856;2022-12-10T00:02:25;43.90;;;25.38;;
42000;SDS011;27689;48.390;10.856;2022-12-10T00:05:09;39.03;;;23.75;;
42000;SDS011;27689;48.390;10.856;2022-12-10T00:07:54;37.55;;;22.30;;
42000;SDS011;27689;48.390;10.856;2022-12-10T00:10:41;41.38;;;24.55;;
42000;SDS011;27689;48.390;10.856;2022-12-10T00:13:25;39.65;;;23.10;;
42000;SDS011;27689;48.390;10.856;2022-12-10T00:16:09;42.95;;;25.90;;
42000;SDS011;27689;48.390;10.856;2022-12-10T00:18:55;40.28;;;24.67;;
42000;SDS011;27689;48.390;10.856;2022-12-10T00:24:23;43.92;;;25.08;;
42000;SDS011;27689;48.390;10.856;2022-12-10T00:27:07;44.03;;;23.98;;
42000;SDS011;27689;48.390;10.856;2022-12-10T00:29:51;54.33;;;28.48;;
42000;SDS011;27689;48.390;10.856;2022-12-10T00:32:35;47.25;;;25.55;;
42000;SDS011;27689;48.390;10.856;2022-12-10T00:35:19;46.75;;;26.65;;
42000;SDS011;27689;48.390;10.856;2022-12-10T00:38:04;44.95;;;24.40;;
42000;SDS011;27689;48.390;10.856;2022-12-10T00:40:48;41.63;;;23.73;;
42000;SDS011;27689;48.390;10.856;2022-12-10T00:43:32;42.17;;;23.67;;
42000;SDS011;27689;48.390;10.856;2022-12-10T00:46:17;43.17;;;24.00;;
42000;SDS011;27689;48.390;10.856;2022-12-10T00:49:02;41.72;;;23.35;;
42000;SDS011;27689;48.390;10.856;2022-12-10T00:51:47;44.63;;;25.20;;
42000;SDS011;27689;48.390;10.856;2022-12-10T00:54:31;41.85;;;24.35;;
42000;SDS011;27689;48.390;10.856;2022-12-10T00:57:15;41.08;;;23.85;;
42000;SDS011;27689;48.390;10.856;2022-12-10T00:59:59;45.20;;;25.27;;
42000;SDS011;27689;48.390;10.856;2022-12-10T01:02:43;39.60;;;23.60;;
42000;SDS011;27689;48.390;10.856;2022-12-10T01:05:27;40.88;;;23.92;;
42000;SDS011;27689;48.390;10.856;2022-12-10T01:08:11;41.00;;;24.63;;
42000;SDS011;27689;48.390;10.856;2022-12-10T01:10:55;45.85;;;26.08;;
42000;SDS011;27689;48.390;10.856;2022-12-10T01:13:40;41.58;;;24.98;;
42000;SDS011;27689;48.390;10.856;2022-12-10T01:16:25;39.20;;;23.73;;
42000;SDS011;27689;48.390;10.856;2022-12-10T01:21:55;38.95;;;24.10;;
42000;SDS011;27689;48.390;10.856;2022-12-10T01:24:39;36.90;;;23.90;;
42000;SDS011;27689;48.390;10.856;2022-12-10T01:27:24;40.92;;;25.27;;
42000;SDS011;27689;48.390;10.856;2022-12-10T01:30:08;40.08;;;24.83;;
42000;SDS011;27689;48.390;10.856;2022-12-10T01:32:53;38.53;;;23.90;;
42000;SDS011;27689;48.390;10.856;2022-12-10T01:35:37;40.95;;;25.60;;
42000;SDS011;27689;48.390;10.856;2022-12-10T01:38:20;38.83;;;24.80;;
42000;SDS011;27689;48.390;10.856;2022-12-10T01:41:05;36.47;;;24.70;;
42000;SDS011;27689;48.390;10.856;2022-12-10T01:46:36;35.38;;;23.67;;
42000;SDS011;27689;48.390;10.856;2022-12-10T01:49:23;37.75;;;24.25;;
42000;SDS011;27689;48.390;10.856;2022-12-10T01:52:10;34.83;;;23.27;;
42000;SDS011;27689;48.390;10.856;2022-12-10T01:54:55;36.20;;;23.80;;
42000;SDS011;27689;48.390;10.856;2022-12-10T01:57:39;35.25;;;23.40;;
42000;SDS011;27689;48.390;10.856;2022-12-10T02:00:23;35.08;;;24.30;;
42000;SDS011;27689;48.390;10.856;2022-12-10T02:03:10;36.15;;;23.67;;
42000;SDS011;27689;48.390;10.856;2022-12-10T02:06:10;33.75;;;22.52;;
42000;SDS011;27689;48.390;10.856;2022-12-10T02:12:17;36.63;;;23.50;;
42000;SDS011;27689;48.390;10.856;2022-12-10T02:15:09;33.00;;;23.27;;
42000;SDS011;27689;48.390;10.856;2022-12-10T02:18:03;36.53;;;24.23;;
42000;SDS011;27689;48.390;10.856;2022-12-10T02:20:51;33.45;;;22.90;;
42000;SDS011;27689;48.390;10.856;2022-12-10T02:23:41;34.45;;;23.63;;
42000;SDS011;27689;48.390;10.856;2022-12-10T02:26:55;31.60;;;22.27;;
42000;SDS011;27689;48.390;10.856;2022-12-10T02:29:40;35.20;;;22.50;;
42000;SDS011;27689;48.390;10.856;2022-12-10T02:32:30;30.67;;;22.17;;
42000;SDS011;27689;48.390;10.856;2022-12-10T02:35:19;31.75;;;22.42;;
42000;SDS011;27689;48.390;10.856;2022-12-10T02:41:06;35.13;;;23.17;;
42000;SDS011;27689;48.390;10.856;2022-12-10T02:43:56;31.73;;;22.50;;
42000;SDS011;27689;48.390;10.856;2022-12-10T02:46:43;32.47;;;22.40;;
42000;SDS011;27689;48.390;10.856;2022-12-10T02:49:28;33.35;;;22.48;;
42000;SDS011;27689;48.390;10.856;2022-12-10T02:52:14;33.65;;;22.83;;
42000;SDS011;27689;48.390;10.856;2022-12-10T02:55:01;34.10;;;23.38;;
42000;SDS011;27689;48.390;10.856;2022-12-10T03:00:56;32.78;;;20.98;;
42000;SDS011;27689;48.390;10.856;2022-12-10T03:07:15;34.55;;;21.77;;
42000;SDS011;27689;48.390;10.856;2022-12-10T03:09:59;33.13;;;23.65;;
42000;SDS011;27689;48.390;10.856;2022-12-10T03:12:48;30.73;;;21.55;;
42000;SDS011;27689;48.390;10.856;2022-12-10T03:15:39;34.28;;;23.33;;
42000;SDS011;27689;48.390;10.856;2022-12-10T03:18:25;32.38;;;22.27;;
42000;SDS011;27689;48.390;10.856;2022-12-10T03:21:12;29.25;;;19.85;;
42000;SDS011;27689;48.390;10.856;2022-12-10T03:23:58;29.63;;;19.63;;
42000;SDS011;27689;48.390;10.856;2022-12-10T03:26:43;29.67;;;20.10;;
42000;SDS011;27689;48.390;10.856;2022-12-10T03:29:33;30.85;;;21.80;;
42000;SDS011;27689;48.390;10.856;2022-12-10T03:32:22;29.27;;;20.95;;
42000;SDS011;27689;48.390;10.856;2022-12-10T03:35:08;30.15;;;20.27;;
42000;SDS011;27689;48.390;10.856;2022-12-10T03:37:54;35.08;;;23.48;;
42000;SDS011;27689;48.390;10.856;2022-12-10T03:40:39;35.55;;;24.42;;
42000;SDS011;27689;48.390;10.856;2022-12-10T03:43:23;32.25;;;22.70;;
42000;SDS011;27689;48.390;10.856;2022-12-10T03:46:07;34.38;;;22.85;;
42000;SDS011;27689;48.390;10.856;2022-12-10T03:48:51;33.22;;;23.45;;
42000;SDS011;27689;48.390;10.856;2022-12-10T03:51:36;34.35;;;23.55;;
42000;SDS011;27689;48.390;10.856;2022-12-10T03:54:19;34.63;;;22.73;;
42000;SDS011;27689;48.390;10.856;2022-12-10T03:57:04;34.35;;;23.77;;
42000;SDS011;27689;48.390;10.856;2022-12-10T03:59:48;34.08;;;21.77;;
42000;SDS011;27689;48.390;10.856;2022-12-10T04:02:32;35.45;;;22.27;;
42000;SDS011;27689;48.390;10.856;2022-12-10T04:05:16;32.10;;;22.23;;
42000;SDS011;27689;48.390;10.856;2022-12-10T04:08:00;36.08;;;24.08;;
42000;SDS011;27689;48.390;10.856;2022-12-10T04:10:44;31.95;;;21.80;;
42000;SDS011;27689;48.390;10.856;2022-12-10T04:13:30;36.42;;;25.10;;
42000;SDS011;27689;48.390;10.856;2022-12-10T04:16:36;34.95;;;22.40;;
42000;SDS011;27689;48.390;10.856;2022-12-10T04:22:06;34.42;;;21.98;;
42000;SDS011;27689;48.390;10.856;2022-12-10T04:25:10;32.50;;;21.60;;
42000;SDS011;27689;48.390;10.856;2022-12-10T04:28:14;34.42;;;23.38;;
42000;SDS011;27689;48.390;10.856;2022-12-10T04:30:58;32.83;;;21.60;;
42000;SDS011;27689;48.390;10.856;2022-12-10T04:33:42;38.90;;;24.77;;
42000;SDS011;27689;48.390;10.856;2022-12-10T04:36:26;35.45;;;23.77;;
42000;SDS011;27689;48.390;10.856;2022-12-10T04:39:10;35.58;;;22.88;;
42000;SDS011;27689;48.390;10.856;2022-12-10T04:41:55;34.65;;;21.45;;
42000;SDS011;27689;48.390;10.856;2022-12-10T04:44:40;36.05;;;24.75;;
42000;SDS011;27689;48.390;10.856;2022-12-10T04:47:24;33.83;;;22.67;;
42000;SDS011;27689;48.390;10.856;2022-12-10T04:50:09;35.35;;;23.30;;
42000;SDS011;27689;48.390;10.856;2022-12-10T04:52:53;33.45;;;22.80;;
42000;SDS011;27689;48.390;10.856;2022-12-10T04:55:37;31.75;;;22.52;;
42000;SDS011;27689;48.390;10.856;2022-12-10T04:58:21;36.67;;;24.27;;
42000;SDS011;27689;48.390;10.856;2022-12-10T05:01:07;35.85;;;23.48;;
42000;SDS011;27689;48.390;10.856;2022-12-10T05:03:53;34.72;;;22.30;;
42000;SDS011;27689;48.390;10.856;2022-12-10T05:06:38;34.13;;;22.67;;
42000;SDS011;27689;48.390;10.856;2022-12-10T05:09:22;34.25;;;21.70;;
42000;SDS011;27689;48.390;10.856;2022-12-10T05:12:06;32.70;;;21.88;;
42000;SDS011;27689;48.390;10.856;2022-12-10T05:17:35;33.80;;;22.40;;
42000;SDS011;27689;48.390;10.856;2022-12-10T05:20:19;37.85;;;23.80;;
42000;SDS011;27689;48.390;10.856;2022-12-10T05:23:03;36.70;;;22.33;;
42000;SDS011;27689;48.390;10.856;2022-12-10T05:26:23;33.78;;;21.73;;
42000;SDS011;27689;48.390;10.856;2022-12-10T05:29:07;34.33;;;22.50;;
42000;SDS011;27689;48.390;10.856;2022-12-10T05:31:51;36.33;;;23.00;;
42000;SDS011;27689;48.390;10.856;2022-12-10T05:34:35;36.80;;;24.45;;
42000;SDS011;27689;48.390;10.856;2022-12-10T05:37:19;36.58;;;23.75;;
42000;SDS011;27689;48.390;10.856;2022-12-10T05:40:03;31.60;;;22.88;;
42000;SDS011;27689;48.390;10.856;2022-12-10T05:42:48;31.38;;;21.95;;
42000;SDS011;27689;48.390;10.856;2022-12-10T05:45:32;33.50;;;21.97;;
42000;SDS011;27689;48.390;10.856;2022-12-10T05:51:14;34.83;;;22.05;;
42000;SDS011;27689;48.390;10.856;2022-12-10T05:54:01;29.83;;;20.35;;
42000;SDS011;27689;48.390;10.856;2022-12-10T05:56:48;35.40;;;23.63;;
42000;SDS011;27689;48.390;10.856;2022-12-10T05:59:33;32.10;;;22.58;;
42000;SDS011;27689;48.390;10.856;2022-12-10T06:02:17;32.88;;;21.77;;
42000;SDS011;27689;48.390;10.856;2022-12-10T06:05:00;37.88;;;25.02;;
42000;SDS011;27689;48.390;10.856;2022-12-10T06:07:44;40.38;;;25.67;;
42000;SDS011;27689;48.390;10.856;2022-12-10T06:10:29;40.30;;;25.88;;
42000;SDS011;27689;48.390;10.856;2022-12-10T06:13:13;40.20;;;25.33;;
42000;SDS011;27689;48.390;10.856;2022-12-10T06:15:57;35.95;;;23.45;;
42000;SDS011;27689;48.390;10.856;2022-12-10T06:18:41;36.88;;;23.17;;
42000;SDS011;27689;48.390;10.856;2022-12-10T06:21:25;37.05;;;24.02;;
42000;SDS011;27689;48.390;10.856;2022-12-10T06:24:09;40.30;;;24.63;;
42000;SDS011;27689;48.390;10.856;2022-12-10T06:26:53;39.70;;;25.23;;
42000;SDS011;27689;48.390;10.856;2022-12-10T06:29:37;39.63;;;25.30;;
42000;SDS011;27689;48.390;10.856;2022-12-10T06:32:21;37.08;;;24.42;;
42000;SDS011;27689;48.390;10.856;2022-12-10T06:35:05;37.70;;;25.13;;
42000;SDS011;27689;48.390;10.856;2022-12-10T06:37:50;34.08;;;23.67;;
42000;SDS011;27689;48.390;10.856;2022-12-10T06:40:34;35.75;;;23.42;;
42000;SDS011;27689;48.390;10.856;2022-12-10T06:43:18;39.38;;;25.63;;
42000;SDS011;27689;48.390;10.856;2022-12-10T06:48:53;38.53;;;25.00;;
42000;SDS011;27689;48.390;10.856;2022-12-10T06:51:37;39.80;;;24.65;;
42000;SDS011;27689;48.390;10.856;2022-12-10T06:57:06;37.28;;;23.98;;
42000;SDS011;27689;48.390;10.856;2022-12-10T06:59:50;39.17;;;24.83;;
42000;SDS011;27689;48.390;10.856;2022-12-10T07:02:34;41.35;;;25.70;;
42000;SDS011;27689;48.390;10.856;2022-12-10T07:05:18;36.75;;;22.95;;
42000;SDS011;27689;48.390;10.856;2022-12-10T07:08:02;38.27;;;23.87;;
42000;SDS011;27689;48.390;10.856;2022-12-10T07:10:46;35.85;;;23.25;;
42000;SDS011;27689;48.390;10.856;2022-12-10T07:13:29;35.90;;;24.35;;
42000;SDS011;27689;48.390;10.856;2022-12-10T07:16:14;36.22;;;23.40;;
42000;SDS011;27689;48.390;10.856;2022-12-10T07:19:01;39.55;;;25.67;;
42000;SDS011;27689;48.390;10.856;2022-12-10T07:21:46;39.47;;;24.27;;
42000;SDS011;27689;48.390;10.856;2022-12-10T07:24:30;38.20;;;23.83;;
42000;SDS011;27689;48.390;10.856;2022-12-10T07:27:14;40.83;;;24.65;;
42000;SDS011;27689;48.390;10.856;2022-12-10T07:29:58;40.85;;;24.60;;
42000;SDS011;27689;48.390;10.856;2022-12-10T07:32:42;38.65;;;23.67;;
42000;SDS011;27689;48.390;10.856;2022-12-10T07:35:26;34.67;;;23.15;;
42000;SDS011;27689;48.390;10.856;2022-12-10T07:38:10;42.92;;;26.88;;
42000;SDS011;27689;48.390;10.856;2022-12-10T07:40:54;39.38;;;25.00;;
42000;SDS011;27689;48.390;10.856;2022-12-10T07:43:39;38.90;;;23.50;;
42000;SDS011;27689;48.390;10.856;2022-12-10T07:46:26;40.85;;;24.65;;
42000;SDS011;27689;48.390;10.856;2022-12-10T07:49:12;39.83;;;25.05;;
42000;SDS011;27689;48.390;10.856;2022-12-10T07:51:57;42.67;;;26.55;;
42000;SDS011;27689;48.390;10.856;2022-12-10T07:54:41;42.28;;;26.38;;
42000;SDS011;27689;48.390;10.856;2022-12-10T07:57:25;43.33;;;26.33;;
42000;SDS011;27689;48.390;10.856;2022-12-10T08:00:09;42.80;;;25.23;;
42000;SDS011;27689;48.390;10.856;2022-12-10T08:02:54;41.08;;;25.20;;
42000;SDS011;27689;48.390;10.856;2022-12-10T08:05:38;45.05;;;26.65;;
42000;SDS011;27689;48.390;10.856;2022-12-10T08:08:22;42.10;;;25.42;;
42000;SDS011;27689;48.390;10.856;2022-12-10T08:11:06;40.03;;;25.58;;
42000;SDS011;27689;48.390;10.856;2022-12-10T08:13:51;41.58;;;24.95;;
42000;SDS011;27689;48.390;10.856;2022-12-10T08:16:38;46.47;;;28.42;;
42000;SDS011;27689;48.390;10.856;2022-12-10T08:19:22;46.53;;;28.10;;
42000;SDS011;27689;48.390;10.856;2022-12-10T08:22:06;46.20;;;28.23;;
42000;SDS011;27689;48.390;10.856;2022-12-10T08:24:50;44.97;;;26.92;;
42000;SDS011;27689;48.390;10.856;2022-12-10T08:30:19;42.58;;;24.30;;
42000;SDS011;27689;48.390;10.856;2022-12-10T08:33:04;42.22;;;27.92;;
42000;SDS011;27689;48.390;10.856;2022-12-10T08:35:48;43.08;;;26.75;;
42000;SDS011;27689;48.390;10.856;2022-12-10T08:38:32;43.35;;;26.20;;
42000;SDS011;27689;48.390;10.856;2022-12-10T08:41:18;47.33;;;28.58;;
42000;SDS011;27689;48.390;10.856;2022-12-10T08:44:05;48.90;;;28.58;;
42000;SDS011;27689;48.390;10.856;2022-12-10T08:46:49;47.33;;;28.25;;
42000;SDS011;27689;48.390;10.856;2022-12-10T08:49:33;38.92;;;25.00;;
42000;SDS011;27689;48.390;10.856;2022-12-10T08:52:17;46.80;;;28.40;;
42000;SDS011;27689;48.390;10.856;2022-12-10T08:55:01;48.47;;;30.23;;
42000;SDS011;27689;48.390;10.856;2022-12-10T08:57:46;49.05;;;30.08;;
42000;SDS011;27689;48.390;10.856;2022-12-10T09:00:30;44.25;;;27.90;;
42000;SDS011;27689;48.390;10.856;2022-12-10T09:03:14;44.03;;;27.30;;
42000;SDS011;27689;48.390;10.856;2022-12-10T09:06:03;56.80;;;34.10;;
42000;SDS011;27689;48.390;10.856;2022-12-10T09:08:51;51.25;;;31.55;;
42000;SDS011;27689;48.390;10.856;2022-12-10T09:11:36;43.47;;;27.17;;
42000;SDS011;27689;48.390;10.856;2022-12-10T09:14:20;43.28;;;28.65;;
42000;SDS011;27689;48.390;10.856;2022-12-10T09:17:04;44.17;;;28.55;;
42000;SDS011;27689;48.390;10.856;2022-12-10T09:19:48;45.25;;;28.42;;
42000;SDS011;27689;48.390;10.856;2022-12-10T09:22:32;42.42;;;26.48;;
42000;SDS011;27689;48.390;10.856;2022-12-10T09:25:20;40.25;;;26.08;;
42000;SDS011;27689;48.390;10.856;2022-12-10T09:28:04;41.38;;;27.52;;
42000;SDS011;27689;48.390;10.856;2022-12-10T09:30:58;45.50;;;27.88;;
42000;SDS011;27689;48.390;10.856;2022-12-10T09:33:44;44.00;;;26.33;;
42000;SDS011;27689;48.390;10.856;2022-12-10T09:36:28;41.38;;;27.08;;
42000;SDS011;27689;48.390;10.856;2022-12-10T09:39:12;43.05;;;25.02;;
42000;SDS011;27689;48.390;10.856;2022-12-10T09:42:07;38.40;;;25.52;;
42000;SDS011;27689;48.390;10.856;2022-12-10T09:48:19;38.28;;;25.20;;
42000;SDS011;27689;48.390;10.856;2022-12-10T09:51:10;43.08;;;27.30;;
42000;SDS011;27689;48.390;10.856;2022-12-10T09:54:11;41.25;;;24.95;;
42000;SDS011;27689;48.390;10.856;2022-12-10T09:57:03;39.28;;;26.15;;
42000;SDS011;27689;48.390;10.856;2022-12-10T09:59:50;39.20;;;25.08;;
42000;SDS011;27689;48.390;10.856;2022-12-10T10:02:35;45.13;;;29.35;;
42000;SDS011;27689;48.390;10.856;2022-12-10T10:05:24;49.38;;;32.28;;
42000;SDS011;27689;48.390;10.856;2022-12-10T10:08:22;43.17;;;28.65;;
42000;SDS011;27689;48.390;10.856;2022-12-10T10:11:14;42.10;;;27.10;;
42000;SDS011;27689;48.390;10.856;2022-12-10T10:17:42;43.45;;;27.58;;
42000;SDS011;27689;48.390;10.856;2022-12-10T10:20:29;42.92;;;27.50;;
42000;SDS011;27689;48.390;10.856;2022-12-10T10:23:14;46.47;;;29.60;;
42000;SDS011;27689;48.390;10.856;2022-12-10T10:25:59;43.00;;;27.92;;
42000;SDS011;27689;48.390;10.856;2022-12-10T10:28:42;60.80;;;36.92;;
42000;SDS011;27689;48.390;10.856;2022-12-10T10:31:30;52.10;;;32.45;;
42000;SDS011;27689;48.390;10.856;2022-12-10T10:34:22;43.00;;;29.10;;
42000;SDS011;27689;48.390;10.856;2022-12-10T10:37:11;41.35;;;28.27;;
42000;SDS011;27689;48.390;10.856;2022-12-10T10:39:59;45.53;;;28.30;;
42000;SDS011;27689;48.390;10.856;2022-12-10T10:42:44;39.65;;;27.67;;
42000;SDS011;27689;48.390;10.856;2022-12-10T10:48:23;42.90;;;28.80;;
42000;SDS011;27689;48.390;10.856;2022-12-10T10:53:55;58.03;;;37.55;;
42000;SDS011;27689;48.390;10.856;2022-12-10T10:56:41;59.00;;;35.47;;
42000;SDS011;27689;48.390;10.856;2022-12-10T10:59:31;55.00;;;34.03;;
42000;SDS011;27689;48.390;10.856;2022-12-10T11:05:23;45.22;;;28.27;;
42000;SDS011;27689;48.390;10.856;2022-12-10T11:08:16;44.03;;;28.42;;
42000;SDS011;27689;48.390;10.856;2022-12-10T11:11:03;40.67;;;28.27;;
42000;SDS011;27689;48.390;10.856;2022-12-10T11:13:49;39.92;;;26.58;;
42000;SDS011;27689;48.390;10.856;2022-12-10T11:19:22;44.47;;;26.90;;
42000;SDS011;27689;48.390;10.856;2022-12-10T11:22:22;45.75;;;29.60;;
42000;SDS011;27689;48.390;10.856;2022-12-10T11:25:11;44.33;;;28.05;;
42000;SDS011;27689;48.390;10.856;2022-12-10T11:27:57;42.70;;;28.23;;
42000;SDS011;27689;48.390;10.856;2022-12-10T11:55:07;45.53;;;29.25;;
42000;SDS011;27689;48.390;10.856;2022-12-10T12:01:18;46.15;;;29.40;;
42000;SDS011;27689;48.390;10.856;2022-12-10T12:04:28;44.65;;;29.60;;
42000;SDS011;27689;48.390;10.856;2022-12-10T12:13:27;51.97;;;33.38;;
42000;SDS011;27689;48.390;10.856;2022-12-10T12:16:18;50.25;;;31.30;;
42000;SDS011;27689;48.390;10.856;2022-12-10T12:19:12;53.80;;;33.53;;
42000;SDS011;27689;48.390;10.856;2022-12-10T12:22:04;48.83;;;31.40;;
42000;SDS011;27689;48.390;10.856;2022-12-10T12:24:59;51.97;;;33.90;;
42000;SDS011;27689;48.390;10.856;2022-12-10T12:27:51;60.47;;;37.78;;
42000;SDS011;27689;48.390;10.856;2022-12-10T12:30:39;48.80;;;31.50;;
42000;SDS011;27689;48.390;10.856;2022-12-10T12:33:42;49.28;;;31.65;;
42000;SDS011;27689;48.390;10.856;2022-12-10T12:36:35;46.05;;;30.27;;
42000;SDS011;27689;48.390;10.856;2022-12-10T12:42:19;48.58;;;33.28;;
42000;SDS011;27689;48.390;10.856;2022-12-10T12:45:29;48.50;;;31.50;;
42000;SDS011;27689;48.390;10.856;2022-12-10T12:54:04;46.20;;;30.60;;
42000;SDS011;27689;48.390;10.856;2022-12-10T12:59:49;46.92;;;28.70;;
42000;SDS011;27689;48.390;10.856;2022-12-10T13:05:32;44.58;;;29.25;;
42000;SDS011;27689;48.390;10.856;2022-12-10T13:16:58;42.42;;;28.00;;
42000;SDS011;27689;48.390;10.856;2022-12-10T13:19:45;46.58;;;29.70;;
42000;SDS011;27689;48.390;10.856;2022-12-10T13:22:40;44.53;;;29.42;;
42000;SDS011;27689;48.390;10.856;2022-12-10T13:28:41;43.95;;;26.55;;
42000;SDS011;27689;48.390;10.856;2022-12-10T13:31:34;46.35;;;29.13;;
42000;SDS011;27689;48.390;10.856;2022-12-10T13:34:21;42.33;;;28.02;;
42000;SDS011;27689;48.390;10.856;2022-12-10T13:37:14;38.78;;;24.88;;
42000;SDS011;27689;48.390;10.856;2022-12-10T13:40:14;39.40;;;24.73;;
42000;SDS011;27689;48.390;10.856;2022-12-10T13:43:19;43.30;;;27.02;;
42000;SDS011;27689;48.390;10.856;2022-12-10T13:46:31;46.28;;;28.90;;
42000;SDS011;27689;48.390;10.856;2022-12-10T13:49:17;44.90;;;27.92;;
42000;SDS011;27689;48.390;10.856;2022-12-10T13:52:07;42.38;;;28.70;;
42000;SDS011;27689;48.390;10.856;2022-12-10T13:55:07;45.03;;;28.60;;
42000;SDS011;27689;48.390;10.856;2022-12-10T14:07:06;45.70;;;28.42;;
42000;SDS011;27689;48.390;10.856;2022-12-10T14:09:54;45.85;;;29.10;;
42000;SDS011;27689;48.390;10.856;2022-12-10T14:12:41;46.53;;;27.88;;
42000;SDS011;27689;48.390;10.856;2022-12-10T14:15:27;44.08;;;29.13;;
42000;SDS011;27689;48.390;10.856;2022-12-10T14:18:13;45.67;;;27.98;;
42000;SDS011;27689;48.390;10.856;2022-12-10T14:20:59;51.05;;;30.95;;
42000;SDS011;27689;48.390;10.856;2022-12-10T14:23:48;49.72;;;30.83;;
42000;SDS011;27689;48.390;10.856;2022-12-10T14:26:33;51.05;;;34.05;;
42000;SDS011;27689;48.390;10.856;2022-12-10T14:29:20;50.38;;;31.45;;
42000;SDS011;27689;48.390;10.856;2022-12-10T14:32:04;51.58;;;32.67;;
42000;SDS011;27689;48.390;10.856;2022-12-10T14:34:52;46.90;;;30.50;;
42000;SDS011;27689;48.390;10.856;2022-12-10T14:37:40;46.15;;;29.70;;
42000;SDS011;27689;48.390;10.856;2022-12-10T14:40:29;46.65;;;29.15;;
42000;SDS011;27689;48.390;10.856;2022-12-10T14:43:17;45.40;;;28.60;;
42000;SDS011;27689;48.390;10.856;2022-12-10T14:46:05;45.75;;;30.08;;
42000;SDS011;27689;48.390;10.856;2022-12-10T14:48:55;44.60;;;29.33;;
42000;SDS011;27689;48.390;10.856;2022-12-10T14:51:40;42.95;;;28.00;;
42000;SDS011;27689;48.390;10.856;2022-12-10T14:57:33;48.22;;;28.83;;
42000;SDS011;27689;48.390;10.856;2022-12-10T15:03:08;40.88;;;27.08;;
42000;SDS011;27689;48.390;10.856;2022-12-10T15:06:01;46.75;;;29.30;;
42000;SDS011;27689;48.390;10.856;2022-12-10T15:08:52;43.03;;;27.60;;
42000;SDS011;27689;48.390;10.856;2022-12-10T15:11:42;35.40;;;23.52;;
42000;SDS011;27689;48.390;10.856;2022-12-10T15:14:27;38.22;;;24.33;;
42000;SDS011;27689;48.390;10.856;2022-12-10T15:20:22;33.80;;;23.42;;
42000;SDS011;27689;48.390;10.856;2022-12-10T15:29:26;42.10;;;23.98;;
42000;SDS011;27689;48.390;10.856;2022-12-10T15:32:24;37.67;;;22.83;;
42000;SDS011;27689;48.390;10.856;2022-12-10T15:35:10;49.22;;;28.38;;
42000;SDS011;27689;48.390;10.856;2022-12-10T15:37:57;51.90;;;27.98;;
42000;SDS011;27689;48.390;10.856;2022-12-10T15:40:44;69.80;;;36.90;;
42000;SDS011;27689;48.390;10.856;2022-12-10T15:43:29;35.20;;;23.67;;
42000;SDS011;27689;48.390;10.856;2022-12-10T15:46:17;33.70;;;21.95;;
42000;SDS011;27689;48.390;10.856;2022-12-10T15:49:02;37.25;;;24.40;;
42000;SDS011;27689;48.390;10.856;2022-12-10T15:51:46;34.65;;;24.60;;
42000;SDS011;27689;48.390;10.856;2022-12-10T16:00:05;43.03;;;25.83;;
42000;SDS011;27689;48.390;10.856;2022-12-10T16:03:04;49.95;;;29.38;;
42000;SDS011;27689;48.390;10.856;2022-12-10T16:05:54;47.85;;;30.02;;
42000;SDS011;27689;48.390;10.856;2022-12-10T16:08:38;50.17;;;31.92;;
42000;SDS011;27689;48.390;10.856;2022-12-10T16:11:22;49.22;;;29.70;;
42000;SDS011;27689;48.390;10.856;2022-12-10T16:14:08;48.92;;;30.58;;
42000;SDS011;27689;48.390;10.856;2022-12-10T16:16:53;48.72;;;30.92;;
42000;SDS011;27689;48.390;10.856;2022-12-10T16:19:37;50.95;;;30.98;;
42000;SDS011;27689;48.390;10.856;2022-12-10T16:22:22;52.95;;;31.23;;
42000;SDS011;27689;48.390;10.856;2022-12-10T16:25:06;44.42;;;27.85;;
42000;SDS011;27689;48.390;10.856;2022-12-10T16:27:51;46.55;;;29.70;;
42000;SDS011;27689;48.390;10.856;2022-12-10T16:30:37;47.42;;;30.83;;
42000;SDS011;27689;48.390;10.856;2022-12-10T16:33:25;46.75;;;29.35;;
42000;SDS011;27689;48.390;10.856;2022-12-10T16:36:11;47.83;;;30.35;;
42000;SDS011;27689;48.390;10.856;2022-12-10T16:41:39;48.55;;;28.98;;
42000;SDS011;27689;48.390;10.856;2022-12-10T16:44:23;49.22;;;30.77;;
42000;SDS011;27689;48.390;10.856;2022-12-10T16:47:11;46.70;;;28.88;;
42000;SDS011;27689;48.390;10.856;2022-12-10T16:49:56;48.30;;;30.15;;
42000;SDS011;27689;48.390;10.856;2022-12-10T16:52:40;49.58;;;31.67;;
42000;SDS011;27689;48.390;10.856;2022-12-10T16:55:25;45.83;;;29.65;;
42000;SDS011;27689;48.390;10.856;2022-12-10T16:58:10;49.00;;;31.05;;
42000;SDS011;27689;48.390;10.856;2022-12-10T17:00:57;47.15;;;29.30;;
42000;SDS011;27689;48.390;10.856;2022-12-10T17:03:41;47.95;;;29.52;;
42000;SDS011;27689;48.390;10.856;2022-12-10T17:06:25;46.88;;;29.30;;
42000;SDS011;27689;48.390;10.856;2022-12-10T17:09:11;44.67;;;27.52;;
42000;SDS011;27689;48.390;10.856;2022-12-10T17:11:55;46.55;;;29.20;;
42000;SDS011;27689;48.390;10.856;2022-12-10T17:14:39;44.10;;;29.08;;
42000;SDS011;27689;48.390;10.856;2022-12-10T17:17:29;51.35;;;32.05;;
42000;SDS011;27689;48.390;10.856;2022-12-10T17:20:17;46.78;;;30.20;;
42000;SDS011;27689;48.390;10.856;2022-12-10T17:23:02;48.08;;;30.38;;
42000;SDS011;27689;48.390;10.856;2022-12-10T17:25:46;49.50;;;30.80;;
42000;SDS011;27689;48.390;10.856;2022-12-10T17:28:31;51.55;;;31.08;;
42000;SDS011;27689;48.390;10.856;2022-12-10T17:31:16;47.72;;;29.58;;
42000;SDS011;27689;48.390;10.856;2022-12-10T17:34:00;49.47;;;30.73;;
42000;SDS011;27689;48.390;10.856;2022-12-10T17:36:44;45.35;;;28.98;;
42000;SDS011;27689;48.390;10.856;2022-12-10T17:39:28;47.15;;;30.42;;
42000;SDS011;27689;48.390;10.856;2022-12-10T17:42:13;47.97;;;30.50;;
42000;SDS011;27689;48.390;10.856;2022-12-10T17:44:57;45.25;;;30.00;;
42000;SDS011;27689;48.390;10.856;2022-12-10T17:47:41;45.88;;;28.48;;
42000;SDS011;27689;48.390;10.856;2022-12-10T17:50:30;47.17;;;29.85;;
42000;SDS011;27689;48.390;10.856;2022-12-10T17:53:17;44.95;;;28.38;;
42000;SDS011;27689;48.390;10.856;2022-12-10T17:56:01;46.88;;;29.75;;
42000;SDS011;27689;48.390;10.856;2022-12-10T17:58:46;47.70;;;30.92;;
42000;SDS011;27689;48.390;10.856;2022-12-10T18:01:31;52.78;;;32.58;;
42000;SDS011;27689;48.390;10.856;2022-12-10T18:04:15;51.15;;;30.50;;
42000;SDS011;27689;48.390;10.856;2022-12-10T18:07:00;45.97;;;29.48;;
42000;SDS011;27689;48.390;10.856;2022-12-10T18:09:44;46.63;;;29.45;;
42000;SDS011;27689;48.390;10.856;2022-12-10T18:12:28;49.95;;;30.98;;
42000;SDS011;27689;48.390;10.856;2022-12-10T18:15:13;43.83;;;28.25;;
42000;SDS011;27689;48.390;10.856;2022-12-10T18:17:58;48.15;;;29.17;;
42000;SDS011;27689;48.390;10.856;2022-12-10T18:20:43;49.28;;;28.85;;
42000;SDS011;27689;48.390;10.856;2022-12-10T18:23:28;44.25;;;27.65;;
42000;SDS011;27689;48.390;10.856;2022-12-10T18:26:14;64.38;;;37.28;;
42000;SDS011;27689;48.390;10.856;2022-12-10T18:29:00;50.33;;;30.85;;
42000;SDS011;27689;48.390;10.856;2022-12-10T18:31:45;45.20;;;28.85;;